OAL052 LGAV-LGZA
Flight info
| Callsign | OAL052 |
|---|---|
| Flight time | 0h 30m |
| Altitude | 24000 |
| Route | KOR N604 ARA |
| Aircraft | A320/M-SDE3FGHIRWY/LB1 |
Departure
| Time | 2026-04-26 14:07 |
|---|---|
| Airport | Athens Eleftherios Venizelos International Airport (LGAV) |
Arrival
| Time | 2026-04-26 14:37 |
|---|---|
| Airport | Zakynthos International Airport Dionysios Solomos (LGZA) |
| Time | Latitude | Longitude | Altitude | Speed | Heading |
|---|---|---|---|---|---|
| 2026-04-26 13:59 | 37.94039 | 23.95240 | 303 ft | 2 kts | 38° |
| 2026-04-26 14:00 | 37.94001 | 23.95200 | 300 ft | 2 kts | 43° |
| 2026-04-26 14:00 | 37.93989 | 23.95184 | 301 ft | 2 kts | 109° |
| 2026-04-26 14:00 | 37.93996 | 23.95174 | 300 ft | 2 kts | 123° |
| 2026-04-26 14:01 | 37.94000 | 23.95166 | 301 ft | 0 kts | 128° |
| 2026-04-26 14:02 | 37.93987 | 23.95188 | 304 ft | 8 kts | 126° |
| 2026-04-26 14:02 | 37.93938 | 23.95274 | 302 ft | 16 kts | 126° |
| 2026-04-26 14:02 | 37.93867 | 23.95393 | 302 ft | 19 kts | 127° |
| 2026-04-26 14:02 | 37.93755 | 23.95380 | 298 ft | 20 kts | 218° |
| 2026-04-26 14:03 | 37.93639 | 23.95271 | 300 ft | 22 kts | 217° |
| 2026-04-26 14:03 | 37.93514 | 23.95152 | 299 ft | 23 kts | 217° |
| 2026-04-26 14:03 | 37.93380 | 23.95025 | 302 ft | 25 kts | 216° |
| 2026-04-26 14:03 | 37.93235 | 23.94889 | 302 ft | 27 kts | 217° |
| 2026-04-26 14:04 | 37.93082 | 23.94745 | 301 ft | 28 kts | 217° |
| 2026-04-26 14:04 | 37.92922 | 23.94592 | 301 ft | 29 kts | 217° |
| 2026-04-26 14:04 | 37.92761 | 23.94438 | 304 ft | 30 kts | 216° |
| 2026-04-26 14:04 | 37.92619 | 23.94302 | 304 ft | 8 kts | 218° |
| 2026-04-26 14:05 | 37.92567 | 23.94291 | 304 ft | 8 kts | 162° |
| 2026-04-26 14:05 | 37.92529 | 23.94336 | 306 ft | 7 kts | 126° |
| 2026-04-26 14:05 | 37.92502 | 23.94383 | 308 ft | 6 kts | 126° |
| 2026-04-26 14:05 | 37.92484 | 23.94449 | 308 ft | 11 kts | 61° |
| 2026-04-26 14:06 | 37.92517 | 23.94482 | 307 ft | 12 kts | 37° |
| 2026-04-26 14:06 | 37.92767 | 23.94720 | 303 ft | 79 kts | 37° |
| 2026-04-26 14:06 | 37.93366 | 23.95288 | 291 ft | 133 kts | 37° |
| 2026-04-26 14:06 | 37.94227 | 23.96105 | 373 ft | 166 kts | 38° |
| 2026-04-26 14:07 | 37.95143 | 23.96981 | 1020 ft | 165 kts | 39° |
| 2026-04-26 14:07 | 37.96048 | 23.97851 | 1682 ft | 165 kts | 37° |
| 2026-04-26 14:07 | 37.96987 | 23.98752 | 2217 ft | 176 kts | 36° |
| 2026-04-26 14:07 | 37.98019 | 23.99741 | 2596 ft | 199 kts | 36° |
| 2026-04-26 14:08 | 37.99176 | 24.00852 | 3023 ft | 221 kts | 37° |
| 2026-04-26 14:08 | 38.00203 | 24.02437 | 3406 ft | 249 kts | 65° |
| 2026-04-26 14:08 | 38.00486 | 24.04669 | 4027 ft | 264 kts | 96° |
| 2026-04-26 14:08 | 37.99859 | 24.06857 | 4876 ft | 270 kts | 125° |
| 2026-04-26 14:09 | 37.98620 | 24.08657 | 5718 ft | 273 kts | 141° |
| 2026-04-26 14:09 | 37.96955 | 24.09789 | 6478 ft | 278 kts | 168° |
| 2026-04-26 14:09 | 37.95031 | 24.09925 | 7164 ft | 280 kts | 193° |
| 2026-04-26 14:09 | 37.93236 | 24.09036 | 7942 ft | 279 kts | 217° |
| 2026-04-26 14:10 | 37.91899 | 24.07276 | 8734 ft | 279 kts | 241° |
| 2026-04-26 14:10 | 37.91269 | 24.04972 | 9532 ft | 280 kts | 264° |
| 2026-04-26 14:10 | 37.91158 | 24.02529 | 10267 ft | 285 kts | 268° |
| 2026-04-26 14:10 | 37.91067 | 23.99921 | 10503 ft | 309 kts | 268° |
| 2026-04-26 14:11 | 37.90858 | 23.94125 | 11134 ft | 343 kts | 268° |
| 2026-04-26 14:11 | 37.90741 | 23.91079 | 11754 ft | 348 kts | 268° |
| 2026-04-26 14:11 | 37.90617 | 23.88001 | 12406 ft | 353 kts | 269° |
| 2026-04-26 14:12 | 37.90486 | 23.84874 | 13049 ft | 358 kts | 269° |
| 2026-04-26 14:12 | 37.90355 | 23.81711 | 13695 ft | 362 kts | 269° |
| 2026-04-26 14:12 | 37.90220 | 23.78510 | 14287 ft | 366 kts | 269° |
| 2026-04-26 14:12 | 37.90084 | 23.75313 | 14861 ft | 370 kts | 269° |
| 2026-04-26 14:13 | 37.89809 | 23.68760 | 15997 ft | 376 kts | 269° |
| 2026-04-26 14:13 | 37.89671 | 23.65441 | 16580 ft | 379 kts | 269° |
| 2026-04-26 14:13 | 37.89529 | 23.62098 | 17153 ft | 382 kts | 269° |
| 2026-04-26 14:14 | 37.89384 | 23.58724 | 17748 ft | 386 kts | 269° |
| 2026-04-26 14:14 | 37.89236 | 23.55316 | 18330 ft | 389 kts | 269° |
| 2026-04-26 14:14 | 37.89086 | 23.51885 | 18859 ft | 393 kts | 269° |
| 2026-04-26 14:14 | 37.88934 | 23.48415 | 19407 ft | 396 kts | 269° |
| 2026-04-26 14:15 | 37.88778 | 23.44925 | 19979 ft | 399 kts | 269° |
| 2026-04-26 14:15 | 37.88623 | 23.41460 | 20535 ft | 402 kts | 269° |
| 2026-04-26 14:15 | 37.88464 | 23.37915 | 21058 ft | 405 kts | 269° |
| 2026-04-26 14:15 | 37.88302 | 23.34347 | 21565 ft | 408 kts | 269° |
| 2026-04-26 14:16 | 37.88137 | 23.30748 | 22051 ft | 410 kts | 269° |
| 2026-04-26 14:16 | 37.87972 | 23.27128 | 22536 ft | 413 kts | 269° |
| 2026-04-26 14:16 | 37.87804 | 23.23492 | 23020 ft | 416 kts | 269° |
| 2026-04-26 14:16 | 37.87631 | 23.19834 | 23478 ft | 418 kts | 269° |
| 2026-04-26 14:17 | 37.87456 | 23.16147 | 23860 ft | 421 kts | 269° |
| 2026-04-26 14:17 | 37.87281 | 23.12443 | 23987 ft | 423 kts | 269° |
| 2026-04-26 14:17 | 37.87108 | 23.08734 | 24021 ft | 432 kts | 269° |
| 2026-04-26 14:17 | 37.86928 | 23.04925 | 24021 ft | 435 kts | 269° |
| 2026-04-26 14:18 | 37.86744 | 23.01097 | 24021 ft | 436 kts | 269° |
| 2026-04-26 14:18 | 37.86562 | 22.97270 | 24023 ft | 436 kts | 269° |
| 2026-04-26 14:18 | 37.86381 | 22.93439 | 24020 ft | 436 kts | 269° |
| 2026-04-26 14:18 | 37.86197 | 22.89613 | 24021 ft | 436 kts | 269° |
| 2026-04-26 14:19 | 37.86009 | 22.85788 | 24019 ft | 436 kts | 269° |
| 2026-04-26 14:19 | 37.85816 | 22.81956 | 24020 ft | 436 kts | 269° |
| 2026-04-26 14:19 | 37.85622 | 22.78129 | 24023 ft | 435 kts | 269° |
| 2026-04-26 14:19 | 37.85433 | 22.74364 | 24024 ft | 435 kts | 269° |
| 2026-04-26 14:20 | 37.85240 | 22.70538 | 24023 ft | 435 kts | 269° |
| 2026-04-26 14:20 | 37.85043 | 22.66718 | 24025 ft | 435 kts | 269° |
| 2026-04-26 14:20 | 37.84844 | 22.62898 | 24025 ft | 435 kts | 269° |
| 2026-04-26 14:20 | 37.84645 | 22.59082 | 24030 ft | 435 kts | 269° |
| 2026-04-26 14:21 | 37.84445 | 22.55264 | 24031 ft | 434 kts | 269° |
| 2026-04-26 14:21 | 37.84246 | 22.51455 | 24027 ft | 434 kts | 269° |
| 2026-04-26 14:21 | 37.84047 | 22.47642 | 24027 ft | 434 kts | 269° |
| 2026-04-26 14:21 | 37.83848 | 22.43838 | 24032 ft | 434 kts | 269° |
| 2026-04-26 14:22 | 37.83648 | 22.40020 | 24033 ft | 434 kts | 269° |
| 2026-04-26 14:22 | 37.83447 | 22.36211 | 24034 ft | 434 kts | 269° |
| 2026-04-26 14:22 | 37.83245 | 22.32458 | 24037 ft | 434 kts | 268° |
| 2026-04-26 14:22 | 37.83040 | 22.28649 | 24037 ft | 434 kts | 268° |
| 2026-04-26 14:23 | 37.82834 | 22.24849 | 24040 ft | 434 kts | 269° |
| 2026-04-26 14:23 | 37.82625 | 22.21039 | 24038 ft | 434 kts | 268° |
| 2026-04-26 14:23 | 37.82414 | 22.17243 | 24039 ft | 434 kts | 268° |
| 2026-04-26 14:23 | 37.82200 | 22.13443 | 23805 ft | 432 kts | 268° |
| 2026-04-26 14:24 | 37.81984 | 22.09601 | 22440 ft | 442 kts | 268° |
| 2026-04-26 14:24 | 37.81764 | 22.05689 | 21185 ft | 449 kts | 268° |
| 2026-04-26 14:24 | 37.81545 | 22.01816 | 20262 ft | 447 kts | 268° |
| 2026-04-26 14:24 | 37.81327 | 21.97920 | 19453 ft | 442 kts | 268° |
| 2026-04-26 14:25 | 37.81111 | 21.94056 | 18662 ft | 438 kts | 268° |
| 2026-04-26 14:25 | 37.80897 | 21.90231 | 17821 ft | 434 kts | 269° |
| 2026-04-26 14:25 | 37.80680 | 21.86442 | 16968 ft | 430 kts | 268° |
| 2026-04-26 14:25 | 37.80462 | 21.82722 | 16443 ft | 419 kts | 268° |
| 2026-04-26 14:26 | 37.80246 | 21.79077 | 15879 ft | 412 kts | 268° |
| 2026-04-26 14:26 | 37.80030 | 21.75486 | 15277 ft | 408 kts | 268° |
| 2026-04-26 14:26 | 37.79816 | 21.71920 | 14705 ft | 405 kts | 268° |
| 2026-04-26 14:26 | 37.79608 | 21.68444 | 14135 ft | 401 kts | 268° |
| 2026-04-26 14:27 | 37.79400 | 21.64935 | 13498 ft | 398 kts | 268° |
| 2026-04-26 14:27 | 37.79195 | 21.61459 | 12871 ft | 395 kts | 267° |
| 2026-04-26 14:27 | 37.78991 | 21.58023 | 12242 ft | 390 kts | 267° |
| 2026-04-26 14:27 | 37.78787 | 21.54616 | 11611 ft | 386 kts | 267° |
| 2026-04-26 14:28 | 37.78582 | 21.51253 | 11003 ft | 382 kts | 267° |
| 2026-04-26 14:28 | 37.78379 | 21.47957 | 10731 ft | 368 kts | 267° |
| 2026-04-26 14:28 | 37.78184 | 21.44807 | 10604 ft | 351 kts | 267° |
| 2026-04-26 14:28 | 37.77998 | 21.41798 | 10483 ft | 336 kts | 266° |
| 2026-04-26 14:29 | 37.77787 | 21.38946 | 10316 ft | 325 kts | 261° |
| 2026-04-26 14:29 | 37.77242 | 21.36194 | 9982 ft | 322 kts | 256° |
| 2026-04-26 14:29 | 37.76617 | 21.33487 | 9560 ft | 320 kts | 255° |
| 2026-04-26 14:29 | 37.75989 | 21.30797 | 9157 ft | 318 kts | 255° |
| 2026-04-26 14:30 | 37.75369 | 21.28137 | 8645 ft | 312 kts | 255° |
| 2026-04-26 14:30 | 37.74756 | 21.25517 | 7864 ft | 310 kts | 253° |
| 2026-04-26 14:30 | 37.74028 | 21.22968 | 7108 ft | 307 kts | 250° |
| 2026-04-26 14:30 | 37.73269 | 21.20494 | 6409 ft | 304 kts | 250° |
| 2026-04-26 14:31 | 37.72550 | 21.18003 | 5644 ft | 300 kts | 253° |
| 2026-04-26 14:31 | 37.71965 | 21.15515 | 5158 ft | 289 kts | 255° |
| 2026-04-26 14:31 | 37.71433 | 21.13158 | 4943 ft | 270 kts | 255° |
| 2026-04-26 14:31 | 37.70928 | 21.10905 | 4461 ft | 264 kts | 255° |
| 2026-04-26 14:32 | 37.70429 | 21.08691 | 3902 ft | 261 kts | 255° |
| 2026-04-26 14:32 | 37.69928 | 21.06505 | 3363 ft | 259 kts | 255° |
| 2026-04-26 14:32 | 37.69427 | 21.04351 | 2788 ft | 256 kts | 255° |
| 2026-04-26 14:32 | 37.69088 | 21.02915 | 2641 ft | 246 kts | 255° |
| 2026-04-26 14:33 | 37.68604 | 21.00898 | 2501 ft | 233 kts | 255° |
| 2026-04-26 14:33 | 37.68152 | 20.99032 | 2387 ft | 215 kts | 255° |
| 2026-04-26 14:33 | 37.67729 | 20.97307 | 2248 ft | 198 kts | 255° |
| 2026-04-26 14:33 | 37.67337 | 20.95718 | 2058 ft | 184 kts | 255° |
| 2026-04-26 14:34 | 37.66963 | 20.94239 | 1760 ft | 170 kts | 257° |
| 2026-04-26 14:34 | 37.66880 | 20.92831 | 1433 ft | 155 kts | 284° |
| 2026-04-26 14:34 | 37.67340 | 20.91730 | 1344 ft | 139 kts | 315° |
| 2026-04-26 14:34 | 37.68166 | 20.91111 | 1271 ft | 138 kts | 335° |
| 2026-04-26 14:35 | 37.69060 | 20.90692 | 1065 ft | 137 kts | 341° |
| 2026-04-26 14:35 | 37.69971 | 20.90347 | 873 ft | 137 kts | 341° |
| 2026-04-26 14:35 | 37.70891 | 20.90005 | 754 ft | 137 kts | 342° |
| 2026-04-26 14:35 | 37.71798 | 20.89663 | 568 ft | 135 kts | 342° |
| 2026-04-26 14:36 | 37.72704 | 20.89329 | 404 ft | 138 kts | 341° |
| 2026-04-26 14:36 | 37.73618 | 20.88977 | 202 ft | 137 kts | 343° |
| 2026-04-26 14:36 | 37.74517 | 20.88639 | 29 ft | 134 kts | 340° |
| 2026-04-26 14:36 | 37.75269 | 20.88361 | 19 ft | 78 kts | 344° |
| 2026-04-26 14:37 | 37.75527 | 20.88240 | 21 ft | 13 kts | 327° |
| 2026-04-26 14:37 | 37.75540 | 20.88272 | 21 ft | 7 kts | 140° |
| 2026-04-26 14:37 | 37.75485 | 20.88328 | 22 ft | 14 kts | 127° |
| 2026-04-26 14:37 | 37.75429 | 20.88431 | 20 ft | 10 kts | 117° |
| 2026-04-26 14:38 | 37.75448 | 20.88503 | 23 ft | 8 kts | 72° |
| 2026-04-26 14:38 | 37.75449 | 20.88510 | 22 ft | 0 kts | 73° |